Main page
METAR-TAF:

METAR-TAF

Airports :

Benbecula Airport

Benbecula, Scotland

latitude: 57-28N, longitude: 007-22W, elevation: 6 m

Current weather observation

The report was made 15 minutes ago, at 04:20 UTC
Wind 15 kt from the West/Southwest
Temperature 13°C
Humidity 88%
Pressure 999 hPa
Visibility 10 km or more

METAR: EGPL 160420Z AUTO 24015KT 9999 SCT015/// SCT023/// 13/11 Q0999

Time: 05:35 (04:35 UTC)

Forecast

The report was made 42 minutes ago, at 03:53 UTC
Forecast valid from 16 at 03 UTC to 16 at 12 UTC
Wind 15 kt from the West/Southwest
Visibility 10 km or more
Few clouds at a height of 1500 ft
Scattered clouds at a height of 3000 ft
Temporary
from 16 at 03 UTC to 16 at 12 UTC
Visibility: 7000 m
Broken clouds at a height of 1400 ft
rain showers
Probability 40% :
Temporary
from 16 at 03 UTC to 16 at 12 UTC
Wind 18 kt from the Southwest with gusts up to 28 kt

TAF: EGPL 160353Z 1603/1612 24015KT 9999 FEW015 SCT030 TEMPO 1603/1612 7000 SHRA BKN014 PROB40 TEMPO 1603/1612 23018G28KT

Weather observations and forecasts of more than 4000 airports (METAR and TAF reports).

The available stations are represented by yellow and red dots on the map.

Hover mouse over dot to see the name of the station.

Then click to see weather observations and forecasts.

To change the map : click on the green buttons with a black cross to zoom in, on the green button with a dash to zoom out, or on the green arrows for adjacent maps.


METAR-TAF: